Time;durP1;ratioP1;P1;durP2;ratioP2;P2;SDS_P1;SDS_P2;PMS_P1;PMS_P2;Temp;Humidity;BMP_temperature;BMP_pressure;BME280_temperature;BME280_humidity;BME280_pressure;Samples;Min_cycle;Max_cycle;Signal;HPM_P1;HPM_P2
2023/07/04 00:04:42;;;;;;;2.03;1.77;;;;;;;20.25;59.06;96598.81;10293733;28;20042;-30
2023/07/04 00:09:43;;;;;;;2.60;1.77;;;;;;;20.25;59.15;96598.00;10315875;28;20093;-30
2023/07/04 00:14:44;;;;;;;2.63;1.85;;;;;;;20.24;58.88;96597.13;10294624;28;20402;-30
2023/07/04 00:19:49;;;;;;;2.20;1.98;;;;;;;20.23;59.01;96600.53;10297976;28;20031;-31
2023/07/04 00:24:49;;;;;;;1.88;1.67;;;;;;;20.23;59.14;96597.13;10293141;28;20034;-30
2023/07/04 00:29:50;;;;;;;5.00;2.00;;;;;;;20.44;60.05;96591.00;10294727;28;20035;-30
2023/07/04 00:34:50;;;;;;;2.80;2.08;;;;;;;20.54;60.43;96597.69;10306277;28;20510;-29
2023/07/04 00:39:51;;;;;;;2.67;1.77;;;;;;;20.48;59.51;96602.81;10292411;28;20034;-30
2023/07/04 00:44:55;;;;;;;3.13;1.90;;;;;;;20.36;58.76;96607.19;10308172;28;20285;-29
2023/07/04 00:49:59;;;;;;;1.88;1.60;;;;;;;20.29;59.07;96605.56;10315710;28;20515;-30
2023/07/04 00:55:09;;;;;;;2.23;2.03;;;;;;;20.29;59.13;96614.88;10303316;28;20391;-30
2023/07/04 01:00:19;;;;;;;1.85;1.73;;;;;;;20.26;59.13;96605.56;10294908;28;20078;-29
2023/07/04 01:05:49;;;;;;;1.98;1.70;;;;;;;20.24;59.31;96603.91;10289838;28;20037;-30
2023/07/04 01:10:51;;;;;;;2.33;1.77;;;;;;;20.25;59.18;96613.25;10285993;28;20054;-29
2023/07/04 01:15:52;;;;;;;2.13;1.73;;;;;;;20.24;59.24;96611.53;10303964;28;20031;-30
2023/07/04 01:20:52;;;;;;;2.37;1.63;;;;;;;20.28;60.19;96618.28;10290380;28;20035;-31
2023/07/04 01:26:00;;;;;;;3.90;1.70;;;;;;;20.49;61.05;96617.25;10298746;28;20038;-30
2023/07/04 01:31:01;;;;;;;2.50;1.90;;;;;;;20.56;61.51;96615.47;10289410;28;20117;-30
2023/07/04 01:36:02;;;;;;;2.22;1.67;;;;;;;20.48;59.85;96622.34;10293458;28;20109;-30
2023/07/04 01:41:03;;;;;;;1.67;1.50;;;;;;;20.36;59.61;96612.25;10297722;28;20411;-30
2023/07/04 01:46:06;;;;;;;2.60;1.60;;;;;;;20.30;59.23;96614.88;10293262;28;20030;-29
2023/07/04 01:51:06;;;;;;;2.03;1.75;;;;;;;20.28;59.20;96610.66;10320702;28;20101;-30
2023/07/04 01:56:07;;;;;;;2.28;1.92;;;;;;;20.25;59.45;96615.78;10288033;28;20034;-30
2023/07/04 02:01:07;;;;;;;2.00;1.63;;;;;;;20.25;59.33;96619.16;10294286;28;20450;-30
2023/07/04 02:06:08;;;;;;;2.95;1.67;;;;;;;20.24;59.26;96624.25;10293109;28;20293;-29
2023/07/04 02:11:10;;;;;;;1.90;1.67;;;;;;;20.24;59.23;96632.72;10288749;28;20030;-30
2023/07/04 02:16:11;;;;;;;1.88;1.40;;;;;;;20.28;59.89;96643.72;10294414;28;20039;-30
2023/07/04 02:21:11;;;;;;;1.90;1.70;;;;;;;20.48;60.60;96630.78;10308667;28;20038;-29
2023/07/04 02:26:12;;;;;;;3.05;1.83;;;;;;;20.56;60.45;96620.56;10311577;28;21054;-30
2023/07/04 02:31:13;;;;;;;2.20;1.92;;;;;;;20.47;59.83;96613.84;10304006;28;20061;-30
2023/07/04 02:36:14;;;;;;;1.85;1.35;;;;;;;20.35;59.41;96618.22;10323094;28;20085;-30
2023/07/04 02:41:14;;;;;;;1.80;1.50;;;;;;;20.31;59.38;96615.72;10290940;28;20082;-30
2023/07/04 02:46:15;;;;;;;1.58;1.30;;;;;;;20.28;59.46;96619.13;10287611;28;20031;-30
2023/07/04 02:51:19;;;;;;;2.05;1.42;;;;;;;20.27;59.20;96621.69;10293102;28;20406;-30
2023/07/04 02:56:20;;;;;;;1.60;1.50;;;;;;;20.26;59.79;96620.00;10314912;28;20106;-29
2023/07/04 03:01:21;;;;;;;2.15;1.90;;;;;;;20.27;59.57;96611.53;10298375;28;20518;-30
2023/07/04 03:06:24;;;;;;;2.03;1.50;;;;;;;20.25;59.52;96613.25;10285867;28;20027;-30
2023/07/04 03:11:25;;;;;;;2.70;1.20;;;;;;;20.30;60.42;96619.09;10300602;28;20035;-30
2023/07/04 03:16:26;;;;;;;2.30;1.40;;;;;;;20.51;61.64;96625.69;10317529;28;20066;-30
2023/07/04 03:21:28;;;;;;;1.55;1.23;;;;;;;20.55;61.45;96629.06;10293572;28;20094;-29
2023/07/04 03:26:28;;;;;;;2.70;1.60;;;;;;;20.45;60.30;96633.38;10298658;28;20057;-30
2023/07/04 03:31:30;;;;;;;1.77;1.40;;;;;;;20.34;60.09;96628.41;10318869;28;20122;-29
2023/07/04 03:36:31;;;;;;;1.55;1.40;;;;;;;20.30;59.29;96636.91;10319117;28;20561;-29
2023/07/04 03:41:32;;;;;;;1.77;1.58;;;;;;;20.27;59.56;96642.03;10294290;28;20035;-30
2023/07/04 03:46:34;;;;;;;1.98;1.50;;;;;;;20.26;59.29;96640.34;10310005;28;20027;-29
2023/07/04 03:51:34;;;;;;;1.85;1.50;;;;;;;20.24;59.29;96632.72;10301078;28;20445;-30
2023/07/04 03:56:35;;;;;;;1.70;1.23;;;;;;;20.40;62.46;96639.38;10313276;28;20030;-29
2023/07/04 04:01:35;;;;;;;3.13;1.60;;;;;;;20.49;64.19;96635.06;10304657;28;20362;-30
2023/07/04 04:06:36;;;;;;;2.73;1.33;;;;;;;20.51;64.29;96640.97;10299839;28;20030;-30
2023/07/04 04:11:36;;;;;;;1.73;1.02;;;;;;;20.59;64.23;96636.66;10309903;28;20298;-30
2023/07/04 04:16:36;;;;;;;4.65;1.30;;;;;;;20.61;64.23;96634.91;10308336;28;20030;-29
2023/07/04 04:21:39;;;;;;;1.93;1.40;;;;;;;20.56;64.97;96635.81;10312688;28;20023;-30
2023/07/04 04:26:40;;;;;;;3.10;1.30;;;;;;;20.51;64.69;96637.56;10319272;28;20289;-30
2023/07/04 04:31:40;;;;;;;2.33;1.33;;;;;;;20.56;65.02;96638.38;10328859;28;20532;-30
2023/07/04 04:36:43;;;;;;;3.42;1.58;;;;;;;20.51;64.77;96637.56;10340117;28;20309;-30
2023/07/04 04:41:43;;;;;;;4.38;1.42;;;;;;;20.54;65.11;96622.28;10309818;28;20023;-30
2023/07/04 04:46:48;;;;;;;2.28;1.52;;;;;;;20.42;63.24;96627.47;10332327;28;20026;-30
2023/07/04 04:51:51;;;;;;;2.38;1.50;;;;;;;20.35;61.42;96630.09;10311656;28;20073;-30
2023/07/04 04:56:52;;;;;;;2.78;1.27;;;;;;;20.29;60.90;96628.44;10355447;28;20056;-30
2023/07/04 05:01:52;;;;;;;2.73;1.17;;;;;;;20.45;62.65;96628.28;10331630;28;20044;-29
2023/07/04 05:06:53;;;;;;;4.10;1.60;;;;;;;20.58;63.18;96632.41;10337162;28;20096;-30
2023/07/04 05:11:53;;;;;;;3.83;1.23;;;;;;;20.52;61.28;96627.38;10331382;28;20033;-30
2023/07/04 05:16:54;;;;;;;1.55;1.25;;;;;;;20.43;61.46;96636.78;10330736;28;20034;-29
2023/07/04 05:21:56;;;;;;;2.43;1.23;;;;;;;20.30;61.83;96639.44;10346295;28;20034;-30
2023/07/04 05:26:56;;;;;;;4.18;1.75;;;;;;;20.27;64.14;96642.03;10321377;28;20355;-30
2023/07/04 05:31:57;;;;;;;5.85;1.55;;;;;;;20.28;61.14;96643.72;10320696;28;20865;-30
2023/07/04 05:37:00;;;;;;;1.23;1.13;;;;;;;20.27;60.35;96645.41;10322549;28;20037;-30
2023/07/04 05:42:00;;;;;;;3.35;1.30;;;;;;;20.27;60.56;96644.56;10322078;28;20360;-30
2023/07/04 05:47:01;;;;;;;1.53;1.10;;;;;;;20.27;60.53;96644.56;10347885;28;20413;-30
2023/07/04 05:52:01;;;;;;;2.47;1.20;;;;;;;20.26;60.26;96650.50;10349320;28;20302;-30
2023/07/04 05:57:02;;;;;;;3.95;1.40;;;;;;;20.46;61.87;96655.41;10315308;28;20288;-30
2023/07/04 06:02:03;;;;;;;3.22;1.25;;;;;;;20.56;61.91;96646.81;10320088;28;20502;-30
2023/07/04 06:07:03;;;;;;;1.75;1.50;;;;;;;20.53;60.97;96651.94;10309729;28;20459;-29
2023/07/04 06:12:07;;;;;;;2.83;1.20;;;;;;;20.43;60.88;96652.03;10326256;28;20046;-30
2023/07/04 06:17:07;;;;;;;1.27;0.95;;;;;;;20.34;60.47;96654.66;10320656;28;20042;-30
2023/07/04 06:22:07;;;;;;;1.87;1.20;;;;;;;20.31;60.44;96658.94;10336973;28;20034;-30
2023/07/04 06:27:08;;;;;;;2.17;1.20;;;;;;;20.29;60.22;96650.47;10337231;28;20305;-29
2023/07/04 06:32:08;;;;;;;2.72;1.25;;;;;;;20.27;60.27;96659.81;10346099;28;20288;-30
2023/07/04 06:37:09;;;;;;;4.43;1.10;;;;;;;20.26;60.23;96656.44;10324297;28;20029;-30
2023/07/04 06:42:09;;;;;;;1.67;1.13;;;;;;;20.27;60.31;96662.38;10316889;28;20683;-30
2023/07/04 06:47:15;;;;;;;7.10;1.27;;;;;;;20.25;60.10;96659.00;10320992;28;20026;-30
2023/07/04 06:52:15;;;;;;;2.33;1.57;;;;;;;20.48;61.35;96663.84;10336004;28;20042;-29
2023/07/04 06:57:16;;;;;;;3.85;1.27;;;;;;;20.57;61.21;96661.22;10319370;28;20037;-30
2023/07/04 07:02:17;;;;;;;1.50;1.10;;;;;;;20.53;60.38;96661.28;10334202;28;20038;-30
2023/07/04 07:07:17;;;;;;;2.47;1.40;;;;;;;20.44;60.42;96658.81;10327116;28;20026;-34
2023/07/04 07:12:18;;;;;;;1.45;1.00;;;;;;;20.36;60.24;96662.28;10311551;28;20026;-30
2023/07/04 07:17:18;;;;;;;1.90;0.97;;;;;;;20.32;60.26;96660.63;10335117;28;20093;-30
2023/07/04 07:22:18;;;;;;;3.42;1.25;;;;;;;20.30;60.06;96657.25;10335134;28;20328;-30
2023/07/04 07:27:19;;;;;;;2.17;1.33;;;;;;;20.27;60.25;96650.47;10349939;28;20030;-30
2023/07/04 07:32:19;;;;;;;0.93;0.70;;;;;;;20.28;60.11;96653.88;10328147;28;20285;-29
2023/07/04 07:37:20;;;;;;;2.50;1.20;;;;;;;20.27;59.87;96654.75;10310899;28;20624;-29
2023/07/04 07:42:20;;;;;;;1.80;0.93;;;;;;;20.28;60.04;96653.88;10318569;28;20031;-29
2023/07/04 07:47:20;;;;;;;2.33;1.33;;;;;;;20.50;61.48;96658.75;10338894;28;20034;-30
2023/07/04 07:52:22;;;;;;;2.10;1.42;;;;;;;20.59;60.77;96656.13;10328827;28;20297;-29
2023/07/04 07:57:22;;;;;;;1.35;1.17;;;;;;;20.48;59.73;96653.69;10314922;28;20494;-30
2023/07/04 08:02:23;;;;;;;1.70;1.30;;;;;;;20.42;60.06;96656.31;10341161;28;20058;-29
2023/07/04 08:07:23;;;;;;;2.00;1.30;;;;;;;20.38;59.90;96655.47;10326262;28;20380;-30
2023/07/04 08:12:24;;;;;;;2.33;1.40;;;;;;;20.33;59.82;96652.16;10317689;28;20431;-29
2023/07/04 08:17:24;;;;;;;1.47;1.10;;;;;;;20.39;60.22;96651.22;10329041;28;20017;-30
2023/07/04 08:22:25;;;;;;;1.50;1.10;;;;;;;20.39;60.09;96658.84;10311303;28;20647;-30
2023/07/04 08:27:28;;;;;;;4.03;1.70;;;;;;;20.42;60.08;96658.84;10330557;28;20105;-30
2023/07/04 08:32:29;;;;;;;2.30;1.52;;;;;;;20.40;60.18;96654.63;10342526;28;20352;-30
2023/07/04 08:37:29;;;;;;;2.70;1.30;;;;;;;20.49;60.94;96659.63;10348682;28;20030;-30
2023/07/04 08:42:33;;;;;;;3.33;2.08;;;;;;;20.63;60.81;96663.72;10325562;28;20053;-30
2023/07/04 08:47:34;;;;;;;2.35;1.67;;;;;;;20.68;60.42;96666.22;10313927;28;20442;-29
2023/07/04 08:52:41;;;;;;;2.78;1.98;;;;;;;20.54;59.93;96661.25;10301068;28;20043;-29
2023/07/04 08:58:02;;;;;;;6.35;4.20;;;;;;;20.49;60.07;96665.56;10330330;28;20030;-30
2023/07/04 09:03:36;;;;;;;5.47;3.13;;;;;;;20.46;60.02;96665.56;10327806;28;20035;-30
2023/07/04 09:09:11;;;;;;;6.65;3.70;;;;;;;20.43;59.95;96654.59;10331495;28;20031;-29
2023/07/04 09:14:42;;;;;;;6.28;3.10;;;;;;;20.41;59.88;96653.75;10342968;28;20490;-30
2023/07/04 09:19:45;;;;;;;4.65;3.00;;;;;;;20.39;60.03;96658.03;10330159;28;20037;-30
2023/07/04 09:24:48;;;;;;;5.72;3.40;;;;;;;20.38;60.05;96660.56;10306999;28;20114;-29
2023/07/04 09:29:48;;;;;;;5.10;3.17;;;;;;;20.38;59.90;96660.56;10325252;28;20030;-30
2023/07/04 09:34:54;;;;;;;4.22;2.50;;;;;;;20.55;60.59;96662.94;10322645;28;20030;-31
2023/07/04 09:39:58;;;;;;;4.05;2.13;;;;;;;20.66;60.62;96671.34;10329101;28;20054;-29
2023/07/04 09:45:05;;;;;;;3.25;2.55;;;;;;;20.58;59.91;96665.50;10314288;28;20410;-30
2023/07/04 09:50:11;;;;;;;3.28;2.53;;;;;;;20.46;59.79;96659.66;10334007;28;20529;-29
2023/07/04 09:55:34;;;;;;;3.10;2.38;;;;;;;20.40;59.82;96658.00;10304656;28;20034;-30
2023/07/04 10:00:35;;;;;;;2.70;2.40;;;;;;;20.40;59.61;96652.06;10310231;28;20042;-30
2023/07/04 10:05:37;;;;;;;3.28;2.40;;;;;;;20.38;60.01;96654.63;10340873;28;20030;-30
2023/07/04 10:10:58;;;;;;;2.60;2.13;;;;;;;20.38;59.96;96646.16;10333427;28;20514;-29
2023/07/04 10:15:58;;;;;;;3.67;2.50;;;;;;;20.37;60.18;96638.53;10330598;28;20034;-31
2023/07/04 10:21:01;;;;;;;3.23;2.40;;;;;;;20.37;60.03;96634.31;10337134;28;20409;-29
2023/07/04 10:26:05;;;;;;;1.77;1.60;;;;;;;20.50;60.61;96634.19;10311673;28;20281;-29
2023/07/04 10:31:25;;;;;;;3.08;1.80;;;;;;;20.66;60.55;96623.00;10328462;28;20112;-30
2023/07/04 10:36:31;;;;;;;2.00;1.60;;;;;;;20.69;60.11;96624.66;10318053;28;20061;-30
2023/07/04 10:41:36;;;;;;;2.70;1.70;;;;;;;20.59;60.17;96628.16;10322424;28;20034;-30
2023/07/04 10:46:46;;;;;;;3.03;2.17;;;;;;;20.48;59.75;96623.16;10318376;28;20097;-30
2023/07/04 10:51:51;;;;;;;1.95;1.75;;;;;;;20.43;60.43;96627.47;10338000;28;20046;-30
2023/07/04 10:57:00;;;;;;;2.08;1.85;;;;;;;20.42;59.88;96622.38;10311938;28;20065;-30
2023/07/04 11:02:22;;;;;;;2.08;1.55;;;;;;;20.39;60.08;96612.25;10316788;28;20542;-30
2023/07/04 11:07:25;;;;;;;1.70;1.35;;;;;;;20.37;60.07;96600.41;10336541;28;20038;-30
2023/07/04 11:12:28;;;;;;;2.05;1.85;;;;;;;20.37;60.44;96608.88;10312067;28;20046;-30
2023/07/04 11:17:33;;;;;;;2.58;1.80;;;;;;;20.37;60.02;96597.88;10318606;28;20084;-30
2023/07/04 11:22:45;;;;;;;1.60;1.30;;;;;;;20.57;60.73;96587.47;10311901;28;20524;-30
2023/07/04 11:28:15;;;;;;;1.75;1.50;;;;;;;20.70;60.25;96594.13;10318572;28;20423;-30
2023/07/04 11:33:37;;;;;;;1.70;1.42;;;;;;;20.61;59.87;96578.09;10347113;28;20038;-30
2023/07/04 11:38:42;;;;;;;2.08;1.50;;;;;;;20.50;59.86;96593.50;10314532;28;20471;-29
2023/07/04 11:43:48;;;;;;;1.50;1.40;;;;;;;20.45;59.95;96582.50;10327828;28;20042;-30
2023/07/04 11:48:51;;;;;;;11.18;2.00;;;;;;;20.43;60.89;96585.91;10335594;28;20113;-29
2023/07/04 11:53:58;;;;;;;4.40;1.40;;;;;;;20.46;60.75;96588.47;10335709;28;20025;-30
2023/07/04 11:59:11;;;;;;;10.55;1.88;;;;;;;20.45;60.83;96581.69;10352316;28;20113;-31
2023/07/04 12:04:11;;;;;;;6.10;1.63;;;;;;;20.43;60.93;96579.16;10342165;28;20031;-29
2023/07/04 12:09:19;;;;;;;5.20;1.40;;;;;;;20.50;60.84;96575.69;10332719;28;20096;-29
2023/07/04 12:14:20;;;;;;;7.60;1.75;;;;;;;20.64;61.07;96563.66;10358132;28;20039;-29
2023/07/04 12:19:21;;;;;;;3.92;1.50;;;;;;;20.75;60.86;96566.94;10327888;28;20043;-30
2023/07/04 12:24:24;;;;;;;4.43;1.60;;;;;;;20.84;60.75;96564.28;10293026;28;20031;-30
2023/07/04 12:29:26;;;;;;;11.82;2.00;;;;;;;20.90;60.76;96563.41;10329732;28;20038;-30
2023/07/04 12:34:27;;;;;;;5.05;2.13;;;;;;;20.94;60.77;96562.50;10331622;28;20053;-30
2023/07/04 12:39:30;;;;;;;6.03;1.73;;;;;;;20.99;60.74;96546.28;10333117;28;20110;-31
2023/07/04 12:44:35;;;;;;;8.60;1.88;;;;;;;21.04;60.64;96548.81;10330857;28;20084;-30
2023/07/04 12:49:37;;;;;;;4.37;1.43;;;;;;;21.08;60.71;96540.25;10298472;28;20038;-30
2023/07/04 12:54:39;;;;;;;4.53;1.77;;;;;;;21.05;60.42;96533.50;10291397;28;20418;-30
2023/07/04 12:59:39;;;;;;;14.02;1.90;;;;;;;21.09;60.64;96542.78;10302343;28;20026;-30
2023/07/04 13:04:40;;;;;;;4.78;1.48;;;;;;;21.10;60.60;96539.38;10318582;28;20035;-30
2023/07/04 13:09:43;;;;;;;10.18;1.77;;;;;;;21.12;60.34;96527.47;10329440;28;20038;-30
2023/07/04 13:14:43;;;;;;;3.47;1.27;;;;;;;21.14;60.48;96530.00;10316667;28;20121;-30
2023/07/04 13:19:43;;;;;;;5.07;1.60;;;;;;;21.15;60.52;96522.31;10313478;28;20417;-30
2023/07/04 13:24:45;;;;;;;3.72;1.50;;;;;;;21.17;60.18;96518.06;10321839;28;20277;-31
2023/07/04 13:29:51;;;;;;;2.45;1.08;;;;;;;21.16;60.48;96511.31;10329449;28;20034;-30
2023/07/04 13:34:52;;;;;;;2.85;1.38;;;;;;;21.10;60.60;96506.28;10317827;28;20034;-30
2023/07/04 13:39:52;;;;;;;4.05;1.42;;;;;;;21.07;60.40;96498.66;10346778;28;20030;-31
2023/07/04 13:44:53;;;;;;;2.42;1.25;;;;;;;21.04;60.42;96508.09;10305615;28;20026;-30
2023/07/04 13:49:53;;;;;;;3.00;1.30;;;;;;;21.00;60.54;96512.38;10329750;28;20051;-30
2023/07/04 13:54:54;;;;;;;1.93;0.80;;;;;;;20.99;60.21;96499.66;10326104;28;20046;-30
2023/07/04 13:59:54;;;;;;;2.53;1.20;;;;;;;20.99;60.33;96500.47;10320752;28;20281;-30
2023/07/04 14:04:54;;;;;;;2.97;1.90;;;;;;;21.06;60.52;96497.00;10320888;28;20797;-29
2023/07/04 14:09:55;;;;;;;3.40;1.10;;;;;;;21.02;60.08;96499.59;10327740;28;20046;-30
2023/07/04 14:14:55;;;;;;;1.87;1.10;;;;;;;20.94;60.20;96499.72;10330056;28;20038;-30
2023/07/04 14:19:56;;;;;;;3.03;1.53;;;;;;;20.91;60.17;96497.22;10324715;28;20677;-30
2023/07/04 14:24:56;;;;;;;1.77;1.50;;;;;;;20.90;60.22;96495.50;10329520;28;20381;-29
2023/07/04 14:29:56;;;;;;;3.23;0.97;;;;;;;20.88;60.43;96486.25;10333621;28;20049;-30
2023/07/04 14:34:57;;;;;;;3.57;1.30;;;;;;;20.86;60.42;96473.53;10300651;28;20046;-30
2023/07/04 14:39:57;;;;;;;2.95;1.05;;;;;;;20.84;60.27;96470.13;10303050;28;20359;-30
2023/07/04 14:44:58;;;;;;;2.60;1.48;;;;;;;20.84;60.19;96465.03;10300939;28;20513;-29
2023/07/04 14:50:00;;;;;;;1.33;0.93;;;;;;;20.80;60.25;96455.75;10314666;28;20491;-29
2023/07/04 14:55:00;;;;;;;2.30;1.08;;;;;;;20.92;60.44;96462.41;10332958;28;20085;-30
2023/07/04 15:00:02;;;;;;;1.80;1.00;;;;;;;21.00;60.58;96460.59;10306398;28;20090;-30
2023/07/04 15:05:02;;;;;;;3.45;1.00;;;;;;;20.92;59.96;96453.09;10308353;28;20038;-30
2023/07/04 15:10:04;;;;;;;1.48;0.85;;;;;;;20.88;60.22;96455.69;10320433;28;20039;-30
2023/07/04 15:15:06;;;;;;;5.43;1.20;;;;;;;20.83;60.06;96457.41;10301881;28;20034;-30
2023/07/04 15:20:07;;;;;;;15.15;2.25;;;;;;;20.73;60.97;96449.06;10337340;28;20491;-31
2023/07/04 15:25:09;;;;;;;27.20;2.80;;;;;;;21.17;60.22;96444.25;10320541;28;20041;-30
2023/07/04 15:30:11;;;;;;;34.15;3.42;;;;;;;20.97;61.35;96438.59;10333797;28;20117;-30
2023/07/04 15:35:11;;;;;;;20.17;2.13;;;;;;;20.90;61.17;96436.97;10337684;28;20117;-31
2023/07/04 15:40:12;;;;;;;16.88;3.20;;;;;;;20.86;61.05;96447.22;10323887;28;20439;-31
2023/07/04 15:45:12;;;;;;;9.90;2.42;;;;;;;20.89;61.39;96442.94;10340222;28;20074;-30
2023/07/04 15:50:14;;;;;;;7.63;1.83;;;;;;;21.02;61.51;96443.59;10327025;28;20472;-29
2023/07/04 15:55:14;;;;;;;11.25;2.42;;;;;;;21.03;60.92;96441.03;10318524;28;20369;-31
2023/07/04 16:00:15;;;;;;;11.67;2.10;;;;;;;20.91;60.49;96435.28;10314706;28;20554;-30
2023/07/04 16:05:16;;;;;;;7.63;2.10;;;;;;;20.82;60.73;96436.22;10333861;28;20290;-30
2023/07/04 16:10:16;;;;;;;7.57;1.57;;;;;;;20.78;60.94;96437.13;10338281;28;20029;-30
2023/07/04 16:15:17;;;;;;;8.75;1.70;;;;;;;20.78;60.85;96444.75;10322898;28;20154;-30
2023/07/04 16:20:18;;;;;;;3.43;1.50;;;;;;;20.80;60.89;96432.03;10313271;28;20029;-31
2023/07/04 16:25:19;;;;;;;3.90;1.55;;;;;;;20.78;60.84;96428.63;10302047;28;20059;-29
2023/07/04 16:30:19;;;;;;;7.25;1.58;;;;;;;20.80;61.10;96417.59;10302482;28;20054;-30
2023/07/04 16:35:19;;;;;;;4.35;1.10;;;;;;;20.78;60.77;96413.38;10323455;28;20031;-30
2023/07/04 16:40:20;;;;;;;3.37;1.43;;;;;;;20.93;62.83;96408.97;10307676;28;20037;-30
2023/07/04 16:45:20;;;;;;;1.67;1.10;;;;;;;21.01;62.30;96409.69;10296490;28;20336;-31
2023/07/04 16:50:21;;;;;;;2.20;0.93;;;;;;;20.92;61.69;96404.75;10304479;28;20540;-29
2023/07/04 16:55:22;;;;;;;4.55;1.13;;;;;;;20.86;60.77;96393.78;10308031;28;20280;-30
2023/07/04 17:00:22;;;;;;;2.35;1.10;;;;;;;21.05;60.07;96395.22;10295401;28;20502;-31
2023/07/04 17:05:23;;;;;;;4.22;1.05;;;;;;;20.91;60.52;96387.78;10290101;28;20065;-29
2023/07/04 17:10:23;;;;;;;2.22;0.88;;;;;;;20.89;60.38;96392.03;10298664;28;20086;-30
2023/07/04 17:15:24;;;;;;;2.60;0.90;;;;;;;20.88;60.55;96398.00;10299141;28;20023;-30
2023/07/04 17:20:24;;;;;;;2.17;0.88;;;;;;;20.89;60.19;96397.13;10306697;28;20361;-29
2023/07/04 17:25:25;;;;;;;2.70;0.88;;;;;;;20.89;60.20;96397.13;10305510;28;20451;-30
2023/07/04 17:30:25;;;;;;;2.50;0.90;;;;;;;20.94;60.78;96395.38;10294666;28;20038;-30
2023/07/04 17:35:26;;;;;;;9.90;1.50;;;;;;;21.11;61.96;96393.41;10298063;28;20290;-30
2023/07/04 17:40:28;;;;;;;5.27;1.10;;;;;;;21.07;60.43;96394.31;10302528;28;20459;-30
2023/07/04 17:45:28;;;;;;;5.03;1.10;;;;;;;21.06;60.30;96391.81;10298546;28;20321;-30
2023/07/04 17:50:29;;;;;;;1.55;1.10;;;;;;;21.04;60.83;96391.81;10307840;28;20550;-30
2023/07/04 17:55:29;;;;;;;4.13;0.93;;;;;;;21.04;60.58;96385.91;10309489;28;20053;-30
2023/07/04 18:00:30;;;;;;;2.73;1.13;;;;;;;21.06;60.57;96385.00;10292077;28;20274;-31
2023/07/04 18:05:30;;;;;;;3.20;1.10;;;;;;;20.99;59.89;96378.31;10297640;28;20292;-30
2023/07/04 18:10:31;;;;;;;1.70;1.17;;;;;;;21.05;60.24;96393.50;10317246;28;20046;-30
2023/07/04 18:15:34;;;;;;;2.47;0.85;;;;;;;21.02;60.15;96388.47;10339049;28;20162;-30
2023/07/04 18:20:34;;;;;;;1.50;0.90;;;;;;;20.98;60.36;96374.09;10346991;28;20026;-31
2023/07/04 18:25:40;;;;;;;2.08;0.93;;;;;;;21.10;60.88;96373.06;10317650;28;20030;-29
2023/07/04 18:30:40;;;;;;;6.37;1.30;;;;;;;21.12;60.99;96376.41;10305338;28;20031;-30
2023/07/04 18:35:41;;;;;;;5.07;1.23;;;;;;;21.06;60.21;96374.81;10296870;28;20030;-30
2023/07/04 18:40:42;;;;;;;1.47;0.90;;;;;;;21.02;60.35;96377.44;10295808;28;20293;-30
2023/07/04 18:45:43;;;;;;;2.58;0.93;;;;;;;20.97;60.19;96377.50;10305341;28;20326;-30
2023/07/04 18:50:44;;;;;;;1.50;0.60;;;;;;;20.97;60.30;96372.41;10294380;28;20117;-30
2023/07/04 18:55:44;;;;;;;2.10;0.75;;;;;;;20.96;60.25;96368.19;10296490;28;20030;-30
2023/07/04 19:00:45;;;;;;;3.03;1.67;;;;;;;20.93;60.17;96364.84;10310743;28;20030;-30
2023/07/04 19:05:45;;;;;;;1.63;0.80;;;;;;;20.93;60.14;96367.38;10295428;28;20286;-30
2023/07/04 19:10:48;;;;;;;2.40;1.10;;;;;;;20.93;60.19;96380.97;10285515;28;20801;-30
2023/07/04 19:15:56;;;;;;;1.33;0.82;;;;;;;21.01;60.55;96381.69;10294791;28;20278;-30
2023/07/04 19:20:59;;;;;;;3.00;0.90;;;;;;;21.14;61.34;96378.06;10313773;28;20038;-30
2023/07/04 19:25:59;;;;;;;1.20;0.80;;;;;;;21.07;60.25;96384.13;10301997;28;20118;-29
2023/07/04 19:31:03;;;;;;;4.57;2.10;;;;;;;21.00;60.18;96379.16;10294255;28;20049;-30
2023/07/04 19:36:07;;;;;;;1.10;0.80;;;;;;;20.94;60.17;96385.19;10295035;28;20368;-30
2023/07/04 19:41:07;;;;;;;1.77;0.80;;;;;;;20.93;60.25;96388.59;10309273;28;20042;-30
2023/07/04 19:46:08;;;;;;;1.90;0.90;;;;;;;20.91;60.11;96390.34;10304757;28;20039;-29
2023/07/04 19:51:15;;;;;;;1.88;0.60;;;;;;;20.90;60.29;96403.91;10293686;28;20073;-30
2023/07/04 19:56:18;;;;;;;1.13;0.90;;;;;;;20.89;60.32;96397.13;10294201;28;20376;-30
2023/07/04 20:01:28;;;;;;;1.00;0.80;;;;;;;20.89;60.42;96411.56;10301000;28;20123;-31
2023/07/04 20:06:31;;;;;;;1.50;1.02;;;;;;;20.89;61.19;96404.75;10298755;28;20035;-30
2023/07/04 20:11:32;;;;;;;1.15;0.70;;;;;;;21.06;61.51;96415.53;10305306;28;20085;-30
2023/07/04 20:16:32;;;;;;;1.60;0.67;;;;;;;21.10;61.12;96417.19;10293299;28;20031;-30
2023/07/04 20:21:33;;;;;;;0.80;0.68;;;;;;;20.98;60.19;96419.91;10298452;28;20859;-30
2023/07/04 20:26:33;;;;;;;1.00;0.73;;;;;;;20.92;60.12;96419.16;10318393;28;20584;-30
2023/07/04 20:31:34;;;;;;;0.90;0.80;;;;;;;20.89;60.06;96420.03;10298237;28;20149;-30
2023/07/04 20:36:34;;;;;;;1.43;0.50;;;;;;;20.86;60.01;96415.00;10311053;28;20278;-29
2023/07/04 20:41:35;;;;;;;0.70;0.55;;;;;;;20.85;59.92;96418.38;10305992;28;20285;-30
2023/07/04 20:46:35;;;;;;;0.95;0.68;;;;;;;20.85;60.09;96418.38;10317421;28;20521;-30
2023/07/04 20:51:36;;;;;;;2.60;0.80;;;;;;;20.84;60.02;96410.75;10308390;28;20455;-30
2023/07/04 20:56:37;;;;;;;0.70;0.68;;;;;;;20.83;60.25;96412.47;10300430;28;20495;-30
2023/07/04 21:01:37;;;;;;;1.30;0.80;;;;;;;20.95;60.69;96406.38;10307956;28;20042;-29
2023/07/04 21:06:38;;;;;;;7.33;1.47;;;;;;;21.07;61.09;96407.03;10311911;28;20308;-30
2023/07/04 21:11:38;;;;;;;0.90;0.77;;;;;;;21.01;60.16;96407.16;10292794;28;20289;-30
2023/07/04 21:16:39;;;;;;;0.50;0.50;;;;;;;20.90;59.92;96401.34;10305438;28;20293;-30
2023/07/04 21:21:39;;;;;;;0.60;0.57;;;;;;;20.84;59.79;96388.72;10294984;28;20297;-30
2023/07/04 21:26:39;;;;;;;1.43;0.50;;;;;;;20.84;59.73;96398.88;10308572;28;20066;-30
2023/07/04 21:31:40;;;;;;;1.13;0.50;;;;;;;20.85;59.73;96392.94;10294269;28;20297;-30
2023/07/04 21:36:40;;;;;;;0.80;0.73;;;;;;;20.82;59.36;96385.31;10298600;28;20349;-30
2023/07/04 21:41:41;;;;;;;0.97;0.70;;;;;;;20.82;59.95;96385.31;10312567;28;20302;-30
2023/07/04 21:46:41;;;;;;;0.80;0.65;;;;;;;20.81;59.88;96378.56;10301749;28;20809;-30
2023/07/04 21:51:41;;;;;;;1.37;0.80;;;;;;;20.86;60.02;96376.81;10304366;28;20030;-30
2023/07/04 21:56:42;;;;;;;1.33;0.90;;;;;;;21.02;60.01;96380.81;10304360;28;20297;-31
2023/07/04 22:01:42;;;;;;;2.47;0.93;;;;;;;21.01;59.41;96368.97;10314690;28;20278;-30
2023/07/04 22:06:43;;;;;;;0.77;0.70;;;;;;;20.92;59.38;96356.38;10303918;28;20104;-30
2023/07/04 22:11:44;;;;;;;1.10;0.60;;;;;;;20.86;59.67;96356.47;10296509;28;20282;-30
2023/07/04 22:16:45;;;;;;;1.25;0.80;;;;;;;20.82;59.45;96353.97;10304010;28;20030;-30
2023/07/04 22:21:45;;;;;;;0.93;0.83;;;;;;;20.82;59.50;96354.78;10304471;28;20038;-30
2023/07/04 22:26:46;;;;;;;1.20;0.82;;;;;;;20.81;59.42;96373.47;10296457;28;20297;-30
2023/07/04 22:31:46;;;;;;;1.03;0.80;;;;;;;20.81;59.49;96370.09;10304920;28;20066;-30
2023/07/04 22:36:47;;;;;;;1.38;1.05;;;;;;;20.79;59.72;96366.75;10285802;28;20274;-30
2023/07/04 22:41:47;;;;;;;0.88;0.70;;;;;;;20.79;59.57;96369.28;10295919;28;20449;-30
2023/07/04 22:46:47;;;;;;;2.80;1.30;;;;;;;20.94;59.10;96359.75;10287980;28;20037;-30
2023/07/04 22:51:50;;;;;;;2.53;1.27;;;;;;;21.00;58.99;96364.75;10295483;28;20317;-30
2023/07/04 22:56:50;;;;;;;1.75;0.88;;;;;;;20.91;58.98;96371.66;10295207;28;20380;-30
2023/07/04 23:01:50;;;;;;;0.97;0.87;;;;;;;20.88;59.18;96370.00;10302933;28;20503;-30
2023/07/04 23:06:51;;;;;;;1.43;0.80;;;;;;;20.83;59.05;96361.59;10302095;28;20298;-30
2023/07/04 23:11:51;;;;;;;3.55;1.17;;;;;;;20.79;59.51;96359.94;10294900;28;20782;-30
2023/07/04 23:16:52;;;;;;;1.35;0.90;;;;;;;20.79;59.23;96349.75;10295193;28;20034;-30
2023/07/04 23:21:53;;;;;;;1.63;1.05;;;;;;;20.80;58.93;96355.69;10293565;28;20562;-30
2023/07/04 23:26:53;;;;;;;1.70;0.90;;;;;;;20.77;59.13;96356.56;10294570;28;20039;-30